Time;durP1;ratioP1;P1;durP2;ratioP2;P2;SDS_P1;SDS_P2;PMS_P1;PMS_P2;Temp;Humidity;BMP_temperature;BMP_pressure;BME280_temperature;BME280_humidity;BME280_pressure;Samples;Min_cycle;Max_cycle;Signal;HPM_P1;HPM_P2
2022/03/07 00:01:19;;;;;;;4.70;2.53;;;0.80;99.90;;;;;;5082288;27;21308;-74
2022/03/07 00:03:45;;;;;;;6.03;3.00;;;0.80;99.90;;;;;;5097725;27;20022;-74
2022/03/07 00:06:11;;;;;;;4.73;2.00;;;0.80;99.90;;;;;;5087673;28;20050;-74
2022/03/07 00:08:38;;;;;;;5.60;2.80;;;0.80;99.90;;;;;;5101997;27;20027;-74
2022/03/07 00:11:04;;;;;;;5.67;3.43;;;0.70;99.90;;;;;;5083592;27;20494;-74
2022/03/07 00:13:31;;;;;;;6.60;3.33;;;0.70;99.90;;;;;;5079736;27;20028;-74
2022/03/07 00:15:57;;;;;;;3.93;2.40;;;0.70;99.90;;;;;;5066840;27;20039;-74
2022/03/07 00:18:24;;;;;;;5.07;2.37;;;0.60;99.90;;;;;;5096900;27;20020;-73
2022/03/07 00:20:50;;;;;;;4.90;2.40;;;0.60;99.90;;;;;;5083121;27;20027;-74
2022/03/07 00:23:16;;;;;;;4.57;2.30;;;0.50;99.90;;;;;;5100967;27;20031;-74
2022/03/07 00:25:43;;;;;;;5.93;2.73;;;0.60;99.90;;;;;;5079633;27;20024;-73
2022/03/07 00:28:10;;;;;;;3.90;2.03;;;0.50;99.90;;;;;;5097128;27;20397;-73
2022/03/07 00:30:36;;;;;;;4.57;2.83;;;0.50;99.90;;;;;;5102499;27;20038;-73
2022/03/07 00:33:03;;;;;;;4.37;2.17;;;0.50;99.90;;;;;;5100147;27;20020;-73
2022/03/07 00:35:29;;;;;;;5.70;1.87;;;0.50;99.90;;;;;;5109382;27;20046;-73
2022/03/07 00:37:56;;;;;;;4.03;2.13;;;0.40;99.90;;;;;;5079050;27;20016;-73
2022/03/07 00:40:22;;;;;;;3.17;2.00;;;0.40;99.90;;;;;;5077783;28;20022;-73
2022/03/07 00:42:49;;;;;;;4.07;1.90;;;0.30;99.90;;;;;;5051933;28;20027;-72
2022/03/07 00:45:15;;;;;;;3.83;1.80;;;0.30;99.90;;;;;;5064502;27;20028;-73
2022/03/07 00:47:42;;;;;;;6.13;2.10;;;0.30;99.90;;;;;;5064608;27;20036;-73
2022/03/07 00:50:09;;;;;;;4.17;1.53;;;0.30;99.90;;;;;;5065796;27;20038;-73
2022/03/07 00:52:36;;;;;;;4.37;2.03;;;0.20;99.90;;;;;;5080871;28;20031;-73
2022/03/07 00:55:03;;;;;;;4.77;1.97;;;0.20;99.90;;;;;;5077862;27;20044;-73
2022/03/07 00:57:29;;;;;;;4.13;1.73;;;0.20;99.90;;;;;;5081414;27;20497;-73
2022/03/07 00:59:56;;;;;;;3.40;1.70;;;0.20;99.90;;;;;;5079341;27;20375;-73
2022/03/07 01:02:22;;;;;;;3.73;2.00;;;0.10;99.90;;;;;;5099920;27;20023;-74
2022/03/07 01:04:49;;;;;;;8.30;2.93;;;0.10;99.90;;;;;;5081133;28;20041;-73
2022/03/07 01:07:15;;;;;;;5.80;2.30;;;0.20;99.90;;;;;;5064482;27;20490;-74
2022/03/07 01:09:42;;;;;;;5.47;2.67;;;0.20;99.90;;;;;;5080106;27;20028;-74
2022/03/07 01:12:08;;;;;;;5.03;1.87;;;0.20;99.90;;;;;;5031146;27;20046;-73
2022/03/07 01:14:35;;;;;;;4.43;2.73;;;0.20;99.90;;;;;;5079346;27;20112;-73
2022/03/07 01:17:02;;;;;;;4.57;2.80;;;0.20;99.90;;;;;;5079541;27;20024;-74
2022/03/07 01:19:28;;;;;;;7.47;3.60;;;0.10;99.90;;;;;;5100844;27;20503;-74
2022/03/07 01:21:55;;;;;;;7.27;4.27;;;0.10;99.90;;;;;;5069100;27;20550;-74
2022/03/07 01:24:22;;;;;;;6.93;4.07;;;0.20;99.90;;;;;;5081034;28;20400;-74
2022/03/07 01:26:48;;;;;;;5.70;3.43;;;0.20;99.90;;;;;;5098983;27;20055;-74
2022/03/07 01:29:15;;;;;;;7.13;4.30;;;0.20;99.90;;;;;;5077591;27;20093;-74
2022/03/07 01:31:41;;;;;;;5.53;3.17;;;0.20;99.90;;;;;;5063069;27;20371;-74
2022/03/07 01:34:08;;;;;;;4.27;2.70;;;0.20;99.90;;;;;;5080302;28;20085;-74
2022/03/07 01:36:35;;;;;;;7.03;3.70;;;0.20;99.90;;;;;;5079318;27;21328;-75
2022/03/07 01:39:01;;;;;;;6.93;3.33;;;0.20;99.90;;;;;;5093952;27;20023;-74
2022/03/07 01:41:28;;;;;;;5.00;3.27;;;0.20;99.90;;;;;;5065707;28;20027;-74
2022/03/07 01:43:54;;;;;;;5.20;3.23;;;0.20;99.90;;;;;;5078339;27;20478;-74
2022/03/07 01:46:21;;;;;;;4.97;2.90;;;0.20;99.90;;;;;;5080259;28;20503;-74
2022/03/07 01:48:48;;;;;;;5.23;2.33;;;0.20;99.90;;;;;;5076529;28;20070;-74
2022/03/07 01:51:16;;;;;;;5.90;2.50;;;0.20;99.90;;;;;;5097666;28;20032;-74
2022/03/07 01:53:45;;;;;;;4.77;3.00;;;0.10;99.90;;;;;;5077630;27;20245;-74
2022/03/07 01:56:14;;;;;;;4.60;2.40;;;0.10;99.90;;;;;;5060905;28;20032;-74
2022/03/07 01:58:42;;;;;;;5.97;2.10;;;0.10;99.90;;;;;;5077261;28;20031;-75
2022/03/07 02:01:09;;;;;;;3.67;2.60;;;0.10;99.90;;;;;;5098271;27;20363;-73
2022/03/07 02:03:36;;;;;;;6.80;2.70;;;0.00;99.90;;;;;;5047674;28;20031;-73
2022/03/07 02:06:03;;;;;;;5.67;3.03;;;0.00;99.90;;;;;;5063981;28;20039;-73
2022/03/07 02:08:32;;;;;;;5.87;3.33;;;0.00;99.90;;;;;;5075433;28;20028;-74
2022/03/07 02:11:04;;;;;;;10.82;5.05;;;0.00;99.90;;;;;;5079655;28;20030;-73
2022/03/07 02:13:33;;;;;;;7.27;4.43;;;0.00;99.90;;;;;;5077920;27;20083;-73
2022/03/07 02:16:03;;;;;;;7.57;4.67;;;0.00;99.90;;;;;;5083895;27;20612;-72
2022/03/07 02:18:33;;;;;;;6.23;4.17;;;0.00;99.90;;;;;;5097357;27;20378;-73
2022/03/07 02:21:33;;;;;;;7.37;4.20;;;0.00;99.90;;;;;;5089752;27;20490;-73
2022/03/07 02:24:16;;;;;;;8.10;3.90;;;0.00;99.90;;;;;;5060989;27;20024;-73
2022/03/07 02:27:07;;;;;;;8.50;3.73;;;0.00;99.90;;;;;;5084569;28;20387;-72
2022/03/07 02:29:34;;;;;;;7.47;4.00;;;0.00;99.90;;;;;;5084103;27;20020;-72
2022/03/07 02:32:06;;;;;;;5.37;3.03;;;0.00;99.90;;;;;;5085834;27;20027;-72
2022/03/07 02:34:35;;;;;;;6.13;3.63;;;-0.10;99.90;;;;;;5068156;27;20043;-72
2022/03/07 02:37:02;;;;;;;7.60;4.53;;;-0.10;99.90;;;;;;5085644;27;20036;-73
2022/03/07 02:39:39;;;;;;;8.60;4.97;;;-0.10;99.90;;;;;;5055494;27;20039;-72
2022/03/07 02:42:06;;;;;;;8.83;4.50;;;-0.10;99.90;;;;;;5070351;27;20148;-72
2022/03/07 02:44:32;;;;;;;10.57;5.50;;;-0.10;99.90;;;;;;5105099;27;20370;-73
2022/03/07 02:46:59;;;;;;;8.10;4.80;;;-0.10;99.90;;;;;;5064355;27;20038;-78
2022/03/07 02:49:25;;;;;;;5.70;3.60;;;-0.10;99.90;;;;;;5050930;27;21074;-78
2022/03/07 02:51:51;;;;;;;5.23;3.23;;;-0.10;99.90;;;;;;5069227;27;20023;-78
2022/03/07 02:54:18;;;;;;;5.87;3.87;;;-0.10;99.90;;;;;;5085873;27;20407;-79
2022/03/07 02:56:45;;;;;;;5.30;3.83;;;-0.20;99.90;;;;;;5068760;27;20032;-78
2022/03/07 02:59:11;;;;;;;7.93;4.70;;;-0.20;99.90;;;;;;5051116;28;20054;-79
2022/03/07 03:01:38;;;;;;;4.90;2.50;;;-0.20;99.90;;;;;;5050025;27;21330;-80
2022/03/07 03:04:04;;;;;;;5.73;3.33;;;-0.20;99.90;;;;;;5049832;27;20028;-80
2022/03/07 03:06:31;;;;;;;5.83;3.23;;;-0.20;99.90;;;;;;5082328;28;20039;-80
2022/03/07 03:08:57;;;;;;;8.40;3.20;;;-0.30;99.90;;;;;;5066796;28;20489;-79
2022/03/07 03:11:24;;;;;;;6.20;2.80;;;-0.30;99.90;;;;;;5048511;27;20031;-78
2022/03/07 03:13:50;;;;;;;7.47;3.23;;;-0.30;99.90;;;;;;5081935;27;20402;-79
2022/03/07 03:16:17;;;;;;;6.00;3.57;;;-0.40;99.90;;;;;;5085901;27;20356;-79
2022/03/07 03:18:43;;;;;;;6.33;3.60;;;-0.40;99.90;;;;;;5068299;27;20023;-78
2022/03/07 03:21:10;;;;;;;7.77;3.60;;;-0.40;99.90;;;;;;5065089;27;20027;-82
2022/03/07 03:23:36;;;;;;;8.20;3.87;;;-0.40;99.90;;;;;;5065594;27;20387;-82
2022/03/07 03:26:03;;;;;;;5.77;2.70;;;-0.50;99.90;;;;;;5055836;27;20058;-81
2022/03/07 03:28:29;;;;;;;10.03;4.93;;;-0.50;99.90;;;;;;5055470;27;20490;-81
2022/03/07 03:30:56;;;;;;;6.43;3.70;;;-0.60;99.90;;;;;;5067031;27;20593;-79
2022/03/07 03:33:23;;;;;;;8.57;5.40;;;-0.60;99.90;;;;;;5105405;27;20028;-78
2022/03/07 03:35:49;;;;;;;9.77;5.40;;;-0.60;99.90;;;;;;5086835;27;20035;-79
2022/03/07 03:38:16;;;;;;;9.97;4.50;;;-0.60;99.90;;;;;;5050615;27;20029;-79
2022/03/07 03:40:42;;;;;;;6.80;4.00;;;-0.60;99.90;;;;;;5066893;27;20367;-79
2022/03/07 03:43:09;;;;;;;6.60;4.07;;;-0.60;99.90;;;;;;5050816;27;20027;-79
2022/03/07 03:45:35;;;;;;;6.57;3.73;;;-0.60;99.90;;;;;;5068101;27;20122;-79
2022/03/07 03:48:02;;;;;;;5.93;3.33;;;-0.70;99.90;;;;;;5065608;27;20487;-81
2022/03/07 03:50:29;;;;;;;8.33;4.20;;;-0.70;99.90;;;;;;5048012;27;20487;-82
2022/03/07 03:52:55;;;;;;;8.57;4.07;;;-0.70;99.90;;;;;;5083013;28;20584;-81
2022/03/07 03:55:22;;;;;;;7.70;3.77;;;-0.70;99.90;;;;;;5065800;27;20040;-82
2022/03/07 03:57:48;;;;;;;7.30;3.57;;;-0.80;99.90;;;;;;5067583;27;20036;-80
2022/03/07 04:00:17;;;;;;;7.87;4.27;;;-0.80;99.90;;;;;;5048680;27;20375;-81
2022/03/07 04:02:44;;;;;;;8.53;4.23;;;-0.80;99.90;;;;;;5081462;27;20031;-81
2022/03/07 04:05:11;;;;;;;7.27;4.23;;;-0.80;99.90;;;;;;5080631;27;20023;-82
2022/03/07 04:07:38;;;;;;;10.77;5.37;;;-0.80;99.90;;;;;;5069493;27;20024;-81
2022/03/07 04:10:06;;;;;;;6.80;4.00;;;-0.80;99.90;;;;;;5083745;27;20043;-81
2022/03/07 04:12:33;;;;;;;12.07;6.03;;;-0.80;99.90;;;;;;5066909;27;20352;-82
2022/03/07 04:14:59;;;;;;;7.63;5.00;;;-0.80;99.90;;;;;;5050584;27;20039;-82
2022/03/07 04:17:26;;;;;;;7.47;4.47;;;-0.80;99.90;;;;;;5100323;27;20042;-82
2022/03/07 04:19:52;;;;;;;7.00;4.10;;;-0.80;99.90;;;;;;5047011;27;20039;-81
2022/03/07 04:22:19;;;;;;;5.97;3.80;;;-0.80;99.90;;;;;;5102852;27;20046;-81
2022/03/07 04:24:45;;;;;;;6.27;4.03;;;-0.80;99.90;;;;;;5051989;27;20035;-82
2022/03/07 04:27:12;;;;;;;7.47;3.60;;;-0.90;99.90;;;;;;5067204;27;20028;-81
2022/03/07 04:29:38;;;;;;;8.97;4.37;;;-0.90;99.90;;;;;;5036463;27;20487;-79
2022/03/07 04:32:05;;;;;;;10.27;5.17;;;-0.90;99.90;;;;;;5068505;27;20066;-79
2022/03/07 04:34:31;;;;;;;7.90;4.93;;;-0.90;99.90;;;;;;5064176;27;20038;-81
2022/03/07 04:36:57;;;;;;;8.17;5.10;;;-0.80;99.90;;;;;;5082967;27;20046;-81
2022/03/07 04:39:24;;;;;;;8.63;5.00;;;-0.80;99.90;;;;;;5046705;28;20467;-82
2022/03/07 04:41:53;;;;;;;8.60;4.57;;;-0.80;99.90;;;;;;5081901;27;20037;-81
2022/03/07 04:44:22;;;;;;;9.67;4.03;;;-0.80;99.90;;;;;;5048895;27;20037;-82
2022/03/07 04:46:49;;;;;;;5.43;3.60;;;-0.80;99.90;;;;;;5079542;28;20048;-81
2022/03/07 04:49:16;;;;;;;6.73;3.53;;;-0.80;99.90;;;;;;5061148;28;20036;-81
2022/03/07 04:51:45;;;;;;;7.97;3.63;;;-0.90;99.90;;;;;;5077545;28;20036;-81
2022/03/07 04:54:13;;;;;;;7.40;2.93;;;-0.90;99.90;;;;;;5080101;28;20024;-81
2022/03/07 04:56:43;;;;;;;5.73;3.30;;;-1.00;99.90;;;;;;5081969;28;21151;-81
2022/03/07 04:59:16;;;;;;;6.30;3.57;;;-1.00;99.90;;;;;;5078213;28;20036;-81
2022/03/07 05:01:50;;;;;;;7.90;3.20;;;-1.00;99.90;;;;;;5061589;28;20032;-80
2022/03/07 05:04:16;;;;;;;7.00;3.20;;;-1.10;99.90;;;;;;5045158;28;20047;-81
2022/03/07 05:06:44;;;;;;;8.13;4.03;;;-1.10;99.90;;;;;;5080406;28;20047;-81
2022/03/07 05:09:13;;;;;;;5.20;3.33;;;-1.00;99.90;;;;;;5077774;28;20503;-80
2022/03/07 05:11:40;;;;;;;5.33;3.40;;;-1.00;99.90;;;;;;5080797;28;20023;-81
2022/03/07 05:14:07;;;;;;;5.43;2.90;;;-1.00;99.90;;;;;;5045474;28;20034;-81
2022/03/07 05:16:34;;;;;;;6.23;3.43;;;-1.00;99.90;;;;;;5083258;28;20043;-81
2022/03/07 05:19:00;;;;;;;5.77;2.90;;;-1.10;99.90;;;;;;5010358;28;20039;-81
2022/03/07 05:21:27;;;;;;;5.80;3.33;;;-1.10;99.90;;;;;;5046659;28;20032;-81
2022/03/07 05:23:53;;;;;;;4.27;2.23;;;-1.10;99.90;;;;;;5048416;28;20450;-81
2022/03/07 05:26:22;;;;;;;6.37;3.20;;;-1.10;99.90;;;;;;5080509;28;20051;-81
2022/03/07 05:28:52;;;;;;;5.80;3.30;;;-1.10;99.90;;;;;;5055511;28;20036;-81
2022/03/07 05:31:25;;;;;;;5.60;3.37;;;-1.20;99.90;;;;;;5080416;28;20028;-81
2022/03/07 05:33:51;;;;;;;5.70;2.97;;;-1.20;99.90;;;;;;5075481;28;20035;-81
2022/03/07 05:36:17;;;;;;;6.47;4.03;;;-1.20;99.90;;;;;;5028246;28;20040;-79
2022/03/07 05:38:44;;;;;;;10.63;5.30;;;-1.20;99.90;;;;;;5045784;28;20024;-79
2022/03/07 05:41:10;;;;;;;7.43;4.60;;;-1.30;99.90;;;;;;5080351;28;20043;-79
2022/03/07 05:43:37;;;;;;;8.70;4.57;;;-1.20;99.90;;;;;;5060898;28;20028;-78
2022/03/07 05:46:03;;;;;;;9.40;5.23;;;-1.20;99.90;;;;;;5045136;28;20024;-79
2022/03/07 05:48:30;;;;;;;15.60;9.37;;;-1.20;99.90;;;;;;5057884;28;20066;-79
2022/03/07 05:50:56;;;;;;;9.43;6.00;;;-1.20;99.90;;;;;;5063042;28;20032;-79
2022/03/07 05:53:23;;;;;;;9.63;5.83;;;-1.20;99.90;;;;;;5060012;28;20036;-79
2022/03/07 05:55:50;;;;;;;8.83;5.70;;;-1.20;99.90;;;;;;5075513;28;20036;-79
2022/03/07 05:58:17;;;;;;;9.93;5.07;;;-1.20;99.90;;;;;;5044681;28;20414;-81
2022/03/07 06:00:44;;;;;;;7.07;4.40;;;-1.20;99.90;;;;;;5062924;28;20041;-81
2022/03/07 06:03:11;;;;;;;8.30;4.93;;;-1.20;99.90;;;;;;5065378;28;20360;-81
2022/03/07 06:05:38;;;;;;;7.10;4.73;;;-1.20;99.90;;;;;;5062477;28;20020;-81
2022/03/07 06:08:05;;;;;;;7.13;4.87;;;-1.20;99.90;;;;;;5046139;28;20035;-81
2022/03/07 06:10:32;;;;;;;7.27;4.13;;;-1.20;99.90;;;;;;5046682;28;20801;-82
2022/03/07 06:12:59;;;;;;;9.73;4.30;;;-1.20;99.90;;;;;;5079878;28;20383;-81
2022/03/07 06:15:26;;;;;;;9.30;4.27;;;-1.20;99.90;;;;;;5066078;28;20031;-81
2022/03/07 06:17:54;;;;;;;11.27;5.50;;;-1.20;99.90;;;;;;5039528;28;20363;-79
2022/03/07 06:20:23;;;;;;;9.70;5.30;;;-1.20;99.90;;;;;;5046804;28;20533;-79
2022/03/07 06:22:49;;;;;;;6.83;4.47;;;-1.20;99.90;;;;;;5077219;28;20532;-79
2022/03/07 06:25:16;;;;;;;6.33;4.40;;;-1.20;99.90;;;;;;5046678;28;22033;-79
2022/03/07 06:27:43;;;;;;;7.87;4.60;;;-1.20;99.90;;;;;;5072987;28;20377;-78
2022/03/07 06:30:10;;;;;;;8.63;4.73;;;-1.10;99.90;;;;;;5075001;28;20030;-78
2022/03/07 06:32:36;;;;;;;9.40;4.33;;;-1.10;99.90;;;;;;5057421;28;20024;-79
2022/03/07 06:35:04;;;;;;;9.70;4.83;;;-1.10;99.90;;;;;;5062126;28;20043;-79
2022/03/07 06:37:31;;;;;;;7.83;4.07;;;-1.10;99.90;;;;;;5052499;28;20068;-79
2022/03/07 06:39:57;;;;;;;8.97;4.97;;;-1.00;99.90;;;;;;5050861;28;20362;-79
2022/03/07 06:42:24;;;;;;;13.87;7.00;;;-1.00;99.90;;;;;;5066014;28;20024;-79
2022/03/07 06:44:50;;;;;;;16.13;8.33;;;-1.00;99.90;;;;;;5064538;28;20915;-78
2022/03/07 06:47:17;;;;;;;11.27;7.10;;;-0.90;99.90;;;;;;5064889;28;20063;-79
2022/03/07 06:49:45;;;;;;;10.47;5.10;;;-0.80;99.90;;;;;;5063362;28;20058;-77
2022/03/07 06:52:12;;;;;;;16.00;7.27;;;-0.80;99.90;;;;;;5068861;28;20028;-78
2022/03/07 06:54:38;;;;;;;10.73;6.67;;;-0.70;99.90;;;;;;5081432;28;20356;-79
2022/03/07 06:57:05;;;;;;;15.47;7.67;;;-0.70;99.90;;;;;;5052283;28;20032;-79
2022/03/07 06:59:31;;;;;;;11.83;6.47;;;-0.60;99.90;;;;;;5047600;28;20048;-79
2022/03/07 07:01:58;;;;;;;9.53;6.50;;;-0.60;99.90;;;;;;5089908;28;21284;-81
2022/03/07 07:04:24;;;;;;;11.97;5.13;;;-0.60;99.90;;;;;;5040726;28;20051;-81
2022/03/07 07:06:50;;;;;;;7.57;4.97;;;-0.60;99.90;;;;;;5020017;28;20031;-79
2022/03/07 07:09:18;;;;;;;6.57;4.37;;;-0.50;99.90;;;;;;5053492;28;20044;-78
2022/03/07 07:11:44;;;;;;;7.40;4.80;;;-0.50;99.90;;;;;;5084960;28;20159;-79
2022/03/07 07:14:10;;;;;;;7.47;4.90;;;-0.50;99.90;;;;;;5054604;28;20790;-79
2022/03/07 07:16:37;;;;;;;7.10;4.43;;;-0.50;99.90;;;;;;5080775;28;20032;-79
2022/03/07 07:19:03;;;;;;;8.33;4.73;;;-0.50;99.90;;;;;;5070910;28;20047;-79
2022/03/07 07:21:30;;;;;;;8.53;4.87;;;-0.40;99.90;;;;;;5089720;28;20029;-78
2022/03/07 07:23:56;;;;;;;8.93;4.90;;;-0.40;99.90;;;;;;5033959;28;20033;-83
2022/03/07 07:26:23;;;;;;;6.70;5.03;;;-0.30;99.90;;;;;;5068644;28;20086;-79
2022/03/07 07:28:49;;;;;;;7.30;4.30;;;-0.20;99.90;;;;;;5040174;28;20050;-82
2022/03/07 07:31:15;;;;;;;7.77;4.80;;;-0.10;99.90;;;;;;5057623;28;20028;-83
2022/03/07 07:33:46;;;;;;;8.90;6.30;;;0.00;99.90;;;;;;5047761;28;20522;-83
2022/03/07 07:36:13;;;;;;;7.13;4.97;;;0.10;99.90;;;;;;5071572;28;20157;-82
2022/03/07 07:38:50;;;;;;;12.37;6.43;;;0.10;99.90;;;;;;5084764;28;20036;-82
2022/03/07 07:41:18;;;;;;;9.20;6.50;;;0.20;99.90;;;;;;5071217;28;20395;-79
2022/03/07 07:43:44;;;;;;;10.63;6.53;;;0.40;99.90;;;;;;5088956;28;20032;-79
2022/03/07 07:46:12;;;;;;;9.10;6.03;;;0.60;99.90;;;;;;5090295;28;20688;-79
2022/03/07 07:48:38;;;;;;;9.50;4.83;;;0.80;99.90;;;;;;5055555;28;20032;-79
2022/03/07 07:51:09;;;;;;;9.80;5.40;;;1.10;99.90;;;;;;5063871;28;20040;-79
2022/03/07 07:53:40;;;;;;;8.25;5.38;;;1.30;99.90;;;;;;5071360;28;20063;-79
2022/03/07 07:56:14;;;;;;;8.30;5.70;;;1.60;99.90;;;;;;5087803;28;20024;-79
2022/03/07 07:58:49;;;;;;;8.25;5.07;;;1.80;99.90;;;;;;5060524;28;20055;-79
2022/03/07 08:01:19;;;;;;;10.40;5.13;;;2.10;99.90;;;;;;5039468;28;20044;-79
2022/03/07 08:03:45;;;;;;;9.70;5.33;;;2.20;99.90;;;;;;5073632;28;20040;-79
2022/03/07 08:06:12;;;;;;;10.73;5.53;;;2.40;99.90;;;;;;5087636;28;20024;-79
2022/03/07 08:08:38;;;;;;;9.57;5.83;;;2.60;99.90;;;;;;5021318;28;20039;-79
2022/03/07 08:11:05;;;;;;;7.40;4.90;;;2.70;99.90;;;;;;5055506;28;20027;-79
2022/03/07 08:13:32;;;;;;;12.47;5.97;;;2.90;99.90;;;;;;5050126;28;20039;-79
2022/03/07 08:15:58;;;;;;;13.57;8.80;;;3.00;99.90;;;;;;5052697;28;20039;-83
2022/03/07 08:18:25;;;;;;;15.23;9.40;;;3.20;99.90;;;;;;5068529;28;20040;-82
2022/03/07 08:20:51;;;;;;;9.07;6.93;;;3.40;99.90;;;;;;5087839;28;20035;-82
2022/03/07 08:23:19;;;;;;;10.47;6.80;;;3.50;99.90;;;;;;5084616;28;20028;-82
2022/03/07 08:25:47;;;;;;;8.20;6.80;;;3.60;99.90;;;;;;5089535;28;20382;-82
2022/03/07 08:28:20;;;;;;;9.30;6.93;;;3.70;99.90;;;;;;5069912;28;20395;-82
2022/03/07 08:30:50;;;;;;;8.90;6.13;;;3.80;99.90;;;;;;5087601;28;20044;-82
2022/03/07 08:33:19;;;;;;;9.82;6.63;;;4.00;99.90;;;;;;5085426;28;20036;-82
2022/03/07 08:35:45;;;;;;;8.50;5.73;;;4.10;99.90;;;;;;5071755;28;20048;-82
2022/03/07 08:38:12;;;;;;;9.30;6.63;;;4.20;99.90;;;;;;5085575;28;20043;-81
2022/03/07 08:40:38;;;;;;;9.30;5.70;;;4.30;99.90;;;;;;5053035;28;20048;-80
2022/03/07 08:43:04;;;;;;;8.60;6.07;;;4.40;99.90;;;;;;5085847;28;20040;-80
2022/03/07 08:45:32;;;;;;;7.80;5.20;;;4.50;99.90;;;;;;5088409;28;20033;-82
2022/03/07 08:47:58;;;;;;;7.83;5.03;;;4.60;99.90;;;;;;5035728;28;20402;-83
2022/03/07 08:50:27;;;;;;;8.07;5.10;;;4.70;99.90;;;;;;5033796;28;20055;-82
2022/03/07 08:52:54;;;;;;;8.17;5.03;;;4.80;99.90;;;;;;5052564;28;21124;-81
2022/03/07 08:55:20;;;;;;;10.37;5.27;;;4.80;99.90;;;;;;5053195;28;20365;-83
2022/03/07 08:57:46;;;;;;;9.13;4.90;;;4.90;99.90;;;;;;5066272;28;20044;-81
2022/03/07 09:00:14;;;;;;;8.87;5.10;;;5.00;99.90;;;;;;5048609;28;20032;-83
2022/03/07 09:02:43;;;;;;;6.87;4.80;;;5.10;99.90;;;;;;5060398;28;20024;-81
2022/03/07 09:05:09;;;;;;;6.67;4.20;;;5.20;99.90;;;;;;5053355;28;20360;-82
2022/03/07 09:07:38;;;;;;;7.77;4.60;;;5.30;99.90;;;;;;5085379;28;22628;-82
2022/03/07 09:10:08;;;;;;;6.30;3.70;;;5.40;99.50;;;;;;5049466;28;20396;-81
2022/03/07 09:12:34;;;;;;;7.70;3.87;;;5.50;98.30;;;;;;5054399;28;20040;-81
2022/03/07 09:15:03;;;;;;;5.80;2.97;;;5.50;97.40;;;;;;5052380;28;20040;-81
2022/03/07 09:17:30;;;;;;;6.37;3.57;;;5.60;97.10;;;;;;5068079;28;20071;-81
2022/03/07 09:19:58;;;;;;;8.43;3.53;;;5.60;96.70;;;;;;5068086;28;20029;-81
2022/03/07 09:22:25;;;;;;;7.47;3.63;;;5.70;96.70;;;;;;5083526;28;20379;-81
2022/03/07 09:24:53;;;;;;;5.10;3.58;;;5.80;96.50;;;;;;5083144;28;20907;-81
2022/03/07 09:27:19;;;;;;;9.17;3.80;;;5.90;96.50;;;;;;5068045;28;20044;-81
2022/03/07 09:29:47;;;;;;;7.55;3.65;;;6.00;95.00;;;;;;5060347;28;20028;-81
2022/03/07 09:32:14;;;;;;;7.00;4.13;;;6.00;94.60;;;;;;5068759;28;20046;-80
2022/03/07 09:34:40;;;;;;;4.80;3.20;;;6.00;94.10;;;;;;5051348;28;20051;-81
2022/03/07 09:37:07;;;;;;;7.37;2.93;;;6.00;93.30;;;;;;5069335;28;20044;-81
2022/03/07 09:39:34;;;;;;;4.43;2.67;;;6.00;93.00;;;;;;5050552;28;20031;-82
2022/03/07 09:42:01;;;;;;;6.32;2.97;;;6.00;92.80;;;;;;5050746;28;20031;-80
2022/03/07 09:44:31;;;;;;;4.83;2.40;;;6.00;91.40;;;;;;5051252;28;20062;-82
2022/03/07 09:47:00;;;;;;;5.00;3.47;;;5.90;91.60;;;;;;5068308;28;20027;-82
2022/03/07 09:49:26;;;;;;;8.03;3.57;;;5.80;91.90;;;;;;5083316;28;20063;-80
2022/03/07 09:51:53;;;;;;;6.80;3.33;;;5.80;91.70;;;;;;5084845;28;20036;-84
2022/03/07 09:54:22;;;;;;;6.45;3.05;;;5.90;92.00;;;;;;5068373;28;20040;-80
2022/03/07 09:56:52;;;;;;;6.80;2.88;;;6.00;91.30;;;;;;5084947;28;20032;-83
2022/03/07 09:59:22;;;;;;;4.53;2.78;;;6.10;91.00;;;;;;5080362;28;20031;-80
2022/03/07 10:02:06;;;;;;;5.88;2.83;;;6.10;90.20;;;;;;5081520;28;20016;-80
2022/03/07 10:04:40;;;;;;;4.80;2.93;;;6.10;90.50;;;;;;5035823;28;20032;-84
2022/03/07 10:07:06;;;;;;;;;;;6.10;90.70;;;;;;5067028;28;20036;-84
2022/03/07 10:09:33;;;;;;;5.67;3.10;;;6.10;90.50;;;;;;5043881;28;20452;-80
2022/03/07 10:12:03;;;;;;;7.10;3.30;;;6.20;90.90;;;;;;5051877;28;20031;-80
2022/03/07 10:14:34;;;;;;;5.47;3.10;;;6.30;90.80;;;;;;5049502;28;20024;-80
2022/03/07 10:17:00;;;;;;;4.82;3.20;;;6.50;90.90;;;;;;5083378;28;20535;-87
2022/03/07 10:19:30;;;;;;;4.97;3.35;;;6.50;90.40;;;;;;5032269;28;20055;-83
2022/03/07 10:21:57;;;;;;;6.15;3.78;;;6.70;91.10;;;;;;5084785;28;20032;-82
2022/03/07 10:24:33;;;;;;;5.45;4.18;;;7.00;91.70;;;;;;5081207;28;20620;-84
2022/03/07 10:27:00;;;;;;;6.85;3.55;;;7.30;91.30;;;;;;5080918;28;20047;-83
2022/03/07 10:29:27;;;;;;;4.03;2.63;;;7.50;90.90;;;;;;5061683;28;20032;-83
2022/03/07 10:31:54;;;;;;;5.85;2.60;;;7.70;90.40;;;;;;5035005;28;20049;-84
2022/03/07 10:34:20;;;;;;;8.35;2.70;;;7.80;86.90;;;;;;5077899;28;20055;-84
2022/03/07 10:36:48;;;;;;;6.07;3.47;;;7.90;87.30;;;;;;5047383;28;20036;-84
2022/03/07 10:39:21;;;;;;;5.53;3.00;;;8.00;87.10;;;;;;5063143;28;20036;-82
2022/03/07 10:41:48;;;;;;;5.75;3.20;;;8.20;86.00;;;;;;5035661;28;20028;-84
2022/03/07 10:44:34;;;;;;;6.07;3.50;;;8.40;85.90;;;;;;5078969;28;20024;-82
2022/03/07 10:47:17;;;;;;;7.95;4.18;;;8.60;85.30;;;;;;5049582;28;20024;-82
2022/03/07 10:49:50;;;;;;;6.57;3.95;;;8.90;84.60;;;;;;5059184;28;20036;-82
2022/03/07 10:52:18;;;;;;;6.75;3.22;;;9.10;83.00;;;;;;5076646;28;20024;-80
2022/03/07 10:54:47;;;;;;;5.95;3.60;;;9.30;82.90;;;;;;5063576;28;20375;-82
2022/03/07 10:57:16;;;;;;;5.35;3.28;;;9.50;82.40;;;;;;5064866;28;20040;-82
2022/03/07 10:59:43;;;;;;;4.70;3.53;;;9.80;83.10;;;;;;5060758;28;20023;-82
2022/03/07 11:02:14;;;;;;;5.78;3.20;;;10.10;80.30;;;;;;5033932;28;20056;-82
2022/03/07 11:04:42;;;;;;;4.10;3.38;;;10.20;78.40;;;;;;5082452;28;20024;-82
2022/03/07 11:07:09;;;;;;;5.30;3.30;;;10.30;77.60;;;;;;5075901;28;20050;-81
2022/03/07 11:09:39;;;;;;;5.03;3.05;;;10.40;76.70;;;;;;5066815;28;20043;-82
2022/03/07 11:12:10;;;;;;;4.55;3.55;;;10.60;77.00;;;;;;5047940;28;20034;-82
2022/03/07 11:14:40;;;;;;;5.80;3.80;;;10.80;74.70;;;;;;5083979;28;20031;-82
2022/03/07 11:17:13;;;;;;;7.00;3.50;;;10.80;74.40;;;;;;5083779;28;20024;-82
2022/03/07 11:19:41;;;;;;;5.22;3.45;;;10.90;74.30;;;;;;5065055;28;20367;-82
2022/03/07 11:22:08;;;;;;;6.03;4.28;;;11.10;74.00;;;;;;5079207;28;20028;-83
2022/03/07 11:24:36;;;;;;;5.07;4.13;;;11.20;72.90;;;;;;5046111;28;20040;-82
2022/03/07 11:27:03;;;;;;;6.50;3.67;;;11.40;72.70;;;;;;5065805;28;20032;-81
2022/03/07 11:29:36;;;;;;;5.07;3.58;;;11.60;72.80;;;;;;5062388;28;20027;-80
2022/03/07 11:32:04;;;;;;;;;;;11.80;70.90;;;;;;5065327;28;20080;-81
2022/03/07 11:34:30;;;;;;;7.15;4.30;;;11.80;70.10;;;;;;5080113;28;20401;-81
2022/03/07 11:36:57;;;;;;;6.60;4.38;;;11.80;69.70;;;;;;5083121;28;20487;-81
2022/03/07 11:39:34;;;;;;;5.63;3.78;;;11.70;69.90;;;;;;5075908;28;20327;-83
2022/03/07 11:42:37;;;;;;;4.75;3.17;;;11.90;70.60;;;;;;5080256;28;20043;-81
2022/03/07 11:45:16;;;;;;;6.57;3.40;;;12.20;70.10;;;;;;5049076;28;20015;-81
2022/03/07 11:47:43;;;;;;;4.55;2.90;;;12.40;68.70;;;;;;5062544;28;20035;-81
2022/03/07 11:50:10;;;;;;;6.25;4.38;;;12.30;68.40;;;;;;5083694;27;20355;-80
2022/03/07 11:52:37;;;;;;;4.88;3.72;;;12.10;67.70;;;;;;5052417;27;20016;-81
2022/03/07 11:55:11;;;;;;;4.13;3.70;;;11.80;69.10;;;;;;5084790;27;20035;-81
2022/03/07 11:57:39;;;;;;;8.02;4.35;;;11.90;69.60;;;;;;5067286;27;20035;-81
2022/03/07 12:00:12;;;;;;;9.40;5.60;;;12.00;69.10;;;;;;5082924;27;20375;-81
2022/03/07 12:02:43;;;;;;;8.77;4.03;;;12.00;68.80;;;;;;5069147;27;20024;-81
2022/03/07 12:05:30;;;;;;;6.53;5.07;;;11.80;69.30;;;;;;5064406;27;20031;-82
2022/03/07 12:08:13;;;;;;;6.55;5.45;;;12.10;70.10;;;;;;5053057;27;20277;-81
2022/03/07 12:10:55;;;;;;;7.75;5.55;;;12.60;69.00;;;;;;5070200;27;20338;-81
2022/03/07 12:13:22;;;;;;;8.50;5.72;;;12.90;68.50;;;;;;5065640;27;20498;-81
2022/03/07 12:15:53;;;;;;;8.38;5.85;;;13.30;67.30;;;;;;5063305;27;20062;-82
2022/03/07 12:18:21;;;;;;;8.55;5.93;;;13.30;66.10;;;;;;5082897;27;20050;-81
2022/03/07 12:21:01;;;;;;;9.57;6.53;;;12.50;66.60;;;;;;5049690;27;20474;-81
2022/03/07 12:23:33;;;;;;;7.53;5.05;;;12.20;68.40;;;;;;5033941;27;20048;-81
2022/03/07 12:26:04;;;;;;;7.97;5.68;;;12.30;68.90;;;;;;5066102;27;20076;-81
2022/03/07 12:28:33;;;;;;;6.88;5.18;;;12.50;68.30;;;;;;5063155;27;20497;-78
2022/03/07 12:31:00;;;;;;;6.55;4.95;;;12.90;68.10;;;;;;5100624;27;20024;-80
2022/03/07 12:33:27;;;;;;;5.63;4.60;;;13.10;66.70;;;;;;5052032;27;20023;-80
2022/03/07 12:36:09;;;;;;;5.05;3.45;;;13.30;66.30;;;;;;5070855;28;20023;-80
2022/03/07 12:38:55;;;;;;;6.10;3.83;;;13.70;66.20;;;;;;5048250;28;20059;-79
2022/03/07 12:41:37;;;;;;;7.15;4.00;;;14.30;65.10;;;;;;5062670;27;20020;-80
2022/03/07 12:44:04;;;;;;;6.43;3.92;;;14.90;62.40;;;;;;5081768;27;20035;-80
2022/03/07 12:46:31;;;;;;;5.35;2.95;;;14.90;60.30;;;;;;5067944;28;20439;-80
2022/03/07 12:48:58;;;;;;;4.88;3.53;;;14.50;60.90;;;;;;5043616;28;20047;-80
2022/03/07 12:51:26;;;;;;;7.18;4.03;;;14.50;61.40;;;;;;5049496;27;20600;-81
2022/03/07 12:53:56;;;;;;;4.68;3.22;;;14.80;61.40;;;;;;5064697;28;20020;-81
2022/03/07 12:56:44;;;;;;;6.13;3.08;;;15.10;60.10;;;;;;5079320;28;20035;-81